Time;durP1;ratioP1;P1;durP2;ratioP2;P2;SDS_P1;SDS_P2;PMS_P1;PMS_P2;Temp;Humidity;BMP_temperature;BMP_pressure;BME280_temperature;BME280_humidity;BME280_pressure;Samples;Min_cycle;Max_cycle;Signal;HPM_P1;HPM_P2
2021/12/05 00:18:10;;;;;;;6.82;1.90;;;;;;;2.03;100.00;94555.50;5053300;28;24829;-75
2021/12/05 00:20:58;;;;;;;4.40;1.40;;;;;;;2.08;100.00;94561.22;5053139;28;24431;-74
2021/12/05 00:23:30;;;;;;;4.60;1.48;;;;;;;2.15;100.00;94560.03;5053148;28;24476;-74
2021/12/05 00:26:01;;;;;;;6.30;1.60;;;;;;;2.14;100.00;94554.97;5053023;28;24438;-74
2021/12/05 00:28:47;;;;;;;5.25;1.67;;;;;;;2.04;100.00;94541.84;5053242;28;24434;-74
2021/12/05 00:31:26;;;;;;;3.92;1.35;;;;;;;2.12;100.00;94541.47;5052902;28;24458;-74
2021/12/05 00:34:17;;;;;;;4.40;1.37;;;;;;;2.11;100.00;94543.19;5052764;28;24419;-75
2021/12/05 00:42:39;;;;;;;15.50;2.30;;;;;;;1.84;100.00;94537.69;5052726;28;24415;-74
2021/12/05 00:48:06;;;;;;;4.70;1.80;;;;;;;1.93;100.00;94541.56;5047829;28;24534;-75
2021/12/05 00:51:05;;;;;;;5.82;1.95;;;;;;;1.86;100.00;94543.56;5052347;28;24451;-74
2021/12/05 00:56:28;;;;;;;6.13;2.20;;;;;;;1.63;100.00;94546.38;5052351;28;24483;-74
2021/12/05 01:02:14;;;;;;;7.28;2.60;;;;;;;1.61;100.00;94533.69;5052443;28;24426;-74
2021/12/05 01:05:12;;;;;;;11.02;3.08;;;;;;;1.59;100.00;94543.13;5052361;28;24522;-74
2021/12/05 01:07:57;;;;;;;6.18;2.30;;;;;;;1.64;100.00;94527.63;5052285;28;25013;-74
2021/12/05 01:10:47;;;;;;;6.23;2.10;;;;;;;1.58;100.00;94536.41;5052617;28;24459;-75
2021/12/05 01:13:32;;;;;;;8.90;1.85;;;;;;;1.60;100.00;94546.53;5052215;28;24956;-75
2021/12/05 01:16:04;;;;;;;4.90;1.65;;;;;;;1.60;100.00;94546.53;5052128;28;24557;-74
2021/12/05 01:18:30;;;;;;;5.30;1.60;;;;;;;1.66;100.00;94552.16;5052271;28;24512;-73
2021/12/05 01:21:05;;;;;;;6.07;1.52;;;;;;;1.66;100.00;94557.25;5051962;28;24439;-74
2021/12/05 01:23:44;;;;;;;6.28;1.35;;;;;;;1.70;100.00;94556.22;5052075;28;24610;-75
2021/12/05 01:26:16;;;;;;;4.95;1.33;;;;;;;1.78;100.00;94566.09;5051818;28;24488;-74
2021/12/05 01:28:59;;;;;;;3.58;1.30;;;;;;;1.78;100.00;94563.53;5052192;28;24435;-74
2021/12/05 01:31:36;;;;;;;4.72;1.60;;;;;;;1.77;100.00;94568.69;5051823;28;24458;-74
2021/12/05 01:34:15;;;;;;;4.35;1.50;;;;;;;1.75;100.00;94560.31;5051729;28;24969;-74
2021/12/05 01:36:54;;;;;;;4.47;1.50;;;;;;;1.76;100.00;94567.06;5051441;28;25028;-75
2021/12/05 01:39:34;;;;;;;5.55;1.50;;;;;;;1.82;100.00;94570.16;5051868;28;24519;-74
2021/12/05 01:42:34;;;;;;;5.18;1.88;;;;;;;1.84;100.00;94570.06;5051764;28;24404;-74
2021/12/05 01:50:57;;;;;;;5.22;1.80;;;;;;;1.70;100.00;94570.72;5040666;28;24477;-74
2021/12/05 01:59:02;;;;;;;8.75;2.08;;;;;;;1.52;100.00;94561.38;5051443;28;24458;-74
2021/12/05 02:09:53;;;;;;;4.57;1.92;;;;;;;1.08;100.00;94543.88;5051011;28;24423;-74
2021/12/05 02:34:39;;;;;;;4.82;2.03;;;;;;;1.30;100.00;94536.88;5045194;28;24481;-74
2021/12/05 02:37:30;;;;;;;2.95;1.48;;;;;;;1.38;100.00;94536.53;5050735;28;24427;-75
2021/12/05 02:40:19;;;;;;;3.95;1.67;;;;;;;1.50;100.00;94540.22;5050693;28;24461;-74
2021/12/05 02:42:50;;;;;;;5.43;1.70;;;;;;;1.61;100.00;94532.88;5050507;28;24427;-74
2021/12/05 02:45:17;;;;;;;3.00;1.45;;;;;;;1.50;100.00;94535.94;5050149;28;25199;-74
2021/12/05 02:47:49;;;;;;;3.60;1.60;;;;;;;1.41;100.00;94536.38;5050491;28;24994;-74
2021/12/05 02:50:17;;;;;;;5.25;1.67;;;;;;;1.38;100.00;94526.31;5050523;28;24427;-74
2021/12/05 02:52:45;;;;;;;4.68;1.55;;;;;;;1.29;100.00;94524.19;5050361;28;24998;-74
2021/12/05 02:55:15;;;;;;;5.78;1.48;;;;;;;1.21;100.00;94525.34;5050029;28;24419;-74
2021/12/05 02:57:52;;;;;;;4.45;1.75;;;;;;;1.17;100.00;94523.84;5050709;28;24784;-74
2021/12/05 03:00:34;;;;;;;4.30;1.37;;;;;;;1.19;100.00;94523.78;5050464;28;24515;-74
2021/12/05 03:03:00;;;;;;;3.78;1.52;;;;;;;1.18;100.00;94527.22;5050318;28;24489;-74
2021/12/05 03:05:28;;;;;;;6.63;1.80;;;;;;;1.18;100.00;94527.22;5050195;28;24506;-74
2021/12/05 03:08:00;;;;;;;4.32;1.27;;;;;;;1.11;100.00;94526.69;5050285;28;24850;-74
2021/12/05 03:10:27;;;;;;;4.75;1.50;;;;;;;1.02;100.00;94519.47;5050251;28;24427;-74
2021/12/05 03:12:53;;;;;;;5.05;1.42;;;;;;;1.06;100.00;94512.50;5050281;28;24446;-74
2021/12/05 03:15:21;;;;;;;5.38;1.40;;;;;;;1.01;100.00;94514.44;5049968;28;24430;-74
2021/12/05 03:17:48;;;;;;;2.77;1.20;;;;;;;1.03;100.00;94512.63;5050277;28;24541;-73
2021/12/05 03:20:16;;;;;;;5.30;1.38;;;;;;;1.14;100.00;94518.88;5050082;28;24427;-74
2021/12/05 03:22:43;;;;;;;3.00;1.00;;;;;;;1.14;100.00;94507.88;5050035;28;24793;-74
2021/12/05 03:25:12;;;;;;;3.58;1.20;;;;;;;1.16;100.00;94499.25;5050037;28;24422;-74
2021/12/05 03:27:41;;;;;;;3.00;1.10;;;;;;;1.13;100.00;94501.13;5050470;28;24419;-74
2021/12/05 03:30:09;;;;;;;5.00;1.20;;;;;;;1.07;100.00;94502.22;5049982;28;24994;-74
2021/12/05 03:32:36;;;;;;;3.25;1.00;;;;;;;1.07;100.00;94496.28;5049907;28;24447;-74
2021/12/05 03:35:04;;;;;;;5.35;1.70;;;;;;;1.05;100.00;94500.66;5049636;28;24415;-74
2021/12/05 03:37:30;;;;;;;6.00;1.30;;;;;;;1.00;100.00;94502.56;5050018;28;24411;-74
2021/12/05 03:39:57;;;;;;;7.00;1.67;;;;;;;0.90;100.00;94494.53;5050457;28;24481;-74
2021/12/05 03:42:25;;;;;;;4.38;1.25;;;;;;;0.97;100.00;94503.56;5050258;28;24789;-74
2021/12/05 03:44:52;;;;;;;3.53;1.40;;;;;;;0.96;100.00;94499.31;5050179;28;24548;-74
2021/12/05 03:47:18;;;;;;;3.22;1.02;;;;;;;0.94;100.00;94499.41;5049916;28;24422;-75
2021/12/05 03:49:45;;;;;;;4.22;1.60;;;;;;;1.02;100.00;94496.50;5050142;28;24461;-74
2021/12/05 03:52:15;;;;;;;8.10;1.40;;;;;;;1.03;100.00;94500.69;5054141;28;24537;-75
2021/12/05 03:54:44;;;;;;;3.30;1.13;;;;;;;1.05;100.00;94498.09;5054127;28;24416;-74
2021/12/05 03:57:11;;;;;;;4.00;1.55;;;;;;;1.08;100.00;94501.34;5053693;28;24407;-74
2021/12/05 03:59:39;;;;;;;4.82;0.77;;;;;;;1.17;100.00;94498.34;5054292;28;24423;-74
2021/12/05 04:02:08;;;;;;;2.63;1.20;;;;;;;1.25;100.00;94504.81;5053747;28;24426;-74
2021/12/05 04:04:35;;;;;;;2.80;1.20;;;;;;;1.29;100.00;94511.44;5053993;28;24472;-75
2021/12/05 04:07:02;;;;;;;5.85;1.55;;;;;;;1.26;100.00;94509.88;5053874;28;24411;-74
2021/12/05 04:09:29;;;;;;;4.18;1.42;;;;;;;1.12;100.00;94512.22;5053644;28;24415;-75
2021/12/05 04:11:58;;;;;;;2.70;1.20;;;;;;;1.06;100.00;94510.75;5053375;28;24972;-75
2021/12/05 04:14:27;;;;;;;4.20;1.40;;;;;;;0.96;100.00;94523.13;5053424;28;24434;-75
2021/12/05 04:16:55;;;;;;;4.25;1.45;;;;;;;0.97;100.00;94513.75;5053255;28;24427;-74
2021/12/05 04:19:22;;;;;;;2.55;1.10;;;;;;;0.98;100.00;94519.66;5053519;28;24872;-73
2021/12/05 04:21:48;;;;;;;3.85;1.50;;;;;;;1.01;100.00;94511.88;5053141;28;24484;-73
2021/12/05 04:24:15;;;;;;;4.55;1.08;;;;;;;1.18;100.00;94502.53;5053361;28;24431;-73
2021/12/05 04:26:43;;;;;;;5.72;1.30;;;;;;;1.14;100.00;94511.22;5052788;28;24498;-74
2021/12/05 04:29:10;;;;;;;2.92;1.20;;;;;;;1.04;100.00;94514.28;5052981;28;24469;-73
2021/12/05 04:31:39;;;;;;;3.35;1.17;;;;;;;0.94;100.00;94509.59;5053348;28;24459;-74
2021/12/05 04:34:07;;;;;;;2.70;1.20;;;;;;;1.02;100.00;94505.88;5053137;28;24514;-73
2021/12/05 04:36:34;;;;;;;2.50;1.00;;;;;;;0.96;100.00;94505.28;5052718;28;24426;-72
2021/12/05 04:39:01;;;;;;;2.80;1.02;;;;;;;0.77;100.00;94517.19;5053158;28;24419;-73
2021/12/05 04:41:28;;;;;;;2.72;1.15;;;;;;;0.67;100.00;94514.22;5052912;28;24814;-73
2021/12/05 04:43:55;;;;;;;2.10;1.10;;;;;;;0.81;100.00;94505.94;5052631;28;24423;-73
2021/12/05 04:46:24;;;;;;;2.38;0.95;;;;;;;0.71;100.00;94518.28;5052643;28;24438;-73
2021/12/05 04:48:53;;;;;;;2.58;1.10;;;;;;;0.67;100.00;94508.31;5052855;28;24430;-73
2021/12/05 04:51:23;;;;;;;4.63;1.27;;;;;;;0.59;100.00;94503.53;5052711;28;24473;-73
2021/12/05 04:53:50;;;;;;;2.90;1.13;;;;;;;0.51;100.00;94505.59;5052568;28;24979;-73
2021/12/05 04:56:18;;;;;;;2.95;1.27;;;;;;;0.50;100.00;94506.50;5052260;28;24429;-73
2021/12/05 04:58:44;;;;;;;7.40;1.48;;;;;;;0.53;100.00;94511.47;5052751;28;24527;-73
2021/12/05 05:01:11;;;;;;;2.40;1.17;;;;;;;0.62;100.00;94507.66;5052391;28;24469;-73
2021/12/05 05:03:38;;;;;;;2.40;1.00;;;;;;;0.55;100.00;94509.66;5052692;28;24468;-73
2021/12/05 05:06:10;;;;;;;2.45;1.10;;;;;;;0.62;100.00;94503.41;5052196;28;25018;-73
2021/12/05 05:08:38;;;;;;;2.67;1.05;;;;;;;0.52;100.00;94501.31;5052565;28;24419;-73
2021/12/05 05:11:08;;;;;;;3.35;1.23;;;;;;;0.46;100.00;94493.06;5052230;28;24438;-73
2021/12/05 05:13:35;;;;;;;2.88;1.13;;;;;;;0.41;100.00;94501.81;5052361;28;24446;-73
2021/12/05 05:16:04;;;;;;;4.30;1.17;;;;;;;0.43;100.00;94505.09;5052143;28;24454;-73
2021/12/05 05:18:39;;;;;;;4.88;1.40;;;;;;;0.32;100.00;94507.28;5052300;28;24419;-73
2021/12/05 05:21:11;;;;;;;4.70;1.80;;;;;;;0.32;100.00;94497.09;5067773;22;24497;-72
2021/12/05 05:23:49;;;;;;;5.10;1.85;;;;;;;0.32;100.00;94497.94;5052387;28;24473;-71
2021/12/05 05:29:14;;;;;;;10.70;1.80;;;;;;;0.15;100.00;94500.38;5052165;28;24426;-71
2021/12/05 05:40:16;;;;;;;2.92;1.30;;;;;;;0.24;100.00;94505.91;5051925;28;24487;-73
2021/12/05 05:45:53;;;;;;;4.55;2.53;;;;;;;0.29;100.00;94508.25;5051317;28;24986;-74
2021/12/05 05:48:36;;;;;;;4.00;1.77;;;;;;;0.34;100.00;94508.06;5051649;28;24454;-74
2021/12/05 05:51:05;;;;;;;6.55;1.33;;;;;;;0.30;100.00;94514.16;5051652;28;24514;-74
2021/12/05 05:53:32;;;;;;;3.03;1.25;;;;;;;0.38;100.00;94515.50;5051651;28;24446;-74
2021/12/05 05:56:01;;;;;;;2.40;0.80;;;;;;;0.35;100.00;94505.44;5051323;28;24415;-74
2021/12/05 05:58:37;;;;;;;3.90;1.25;;;;;;;0.40;100.00;94510.31;5051518;28;24776;-74
2021/12/05 06:01:07;;;;;;;4.22;1.08;;;;;;;0.47;100.00;94507.44;5051293;28;24435;-72
2021/12/05 06:03:33;;;;;;;2.60;1.23;;;;;;;0.50;100.00;94500.56;5051428;28;24415;-71
2021/12/05 06:06:03;;;;;;;3.97;1.27;;;;;;;0.45;100.00;94498.25;5051151;28;24426;-71
2021/12/05 06:08:31;;;;;;;2.53;1.17;;;;;;;0.42;100.00;94506.00;5051343;28;24473;-71
2021/12/05 06:11:03;;;;;;;2.45;1.05;;;;;;;0.41;100.00;94505.19;5051086;28;24446;-71
2021/12/05 06:13:30;;;;;;;8.23;1.20;;;;;;;0.33;100.00;94506.41;5050285;28;24983;-71
2021/12/05 06:15:58;;;;;;;2.95;1.20;;;;;;;0.35;100.00;94502.91;5051018;28;24469;-71
2021/12/05 06:18:25;;;;;;;3.58;1.45;;;;;;;0.36;100.00;94512.19;5051227;28;24419;-71
2021/12/05 06:20:53;;;;;;;3.97;1.30;;;;;;;0.34;100.00;94506.34;5050864;28;24418;-71
2021/12/05 06:23:20;;;;;;;2.53;1.20;;;;;;;0.30;100.00;94504.81;5051102;28;24465;-71
2021/12/05 06:25:49;;;;;;;2.83;0.97;;;;;;;0.29;100.00;94507.41;5050656;28;24487;-71
2021/12/05 06:28:25;;;;;;;4.32;1.10;;;;;;;0.29;100.00;94505.69;5051082;28;24839;-71
2021/12/05 06:30:56;;;;;;;2.90;1.00;;;;;;;0.39;100.00;94508.69;5050956;28;24438;-71
2021/12/05 06:41:52;;;;;;;3.58;2.05;;;;;;;0.32;100.00;94520.03;5046728;28;24534;-72
2021/12/05 06:47:14;;;;;;;3.08;1.42;;;;;;;0.42;100.00;94521.28;5014387;28;24430;-71
2021/12/05 06:49:42;;;;;;;2.85;1.30;;;;;;;0.50;100.00;94534.53;5050679;28;24522;-70
2021/12/05 06:52:09;;;;;;;3.60;1.98;;;;;;;0.43;100.00;94530.56;5050211;28;24813;-71
2021/12/05 06:54:38;;;;;;;5.47;1.83;;;;;;;0.51;100.00;94542.97;5050199;28;24944;-71
2021/12/05 06:57:05;;;;;;;8.18;1.70;;;;;;;0.43;100.00;94539.03;5049802;28;24517;-71
2021/12/05 06:59:34;;;;;;;3.03;1.40;;;;;;;0.40;100.00;94536.63;5050301;28;24419;-71
2021/12/05 07:02:01;;;;;;;2.27;1.20;;;;;;;0.45;100.00;94539.00;5049819;28;25014;-71
2021/12/05 07:04:48;;;;;;;3.05;1.25;;;;;;;0.43;100.00;94544.13;5049650;28;24411;-71
2021/12/05 07:07:20;;;;;;;3.67;1.30;;;;;;;0.41;100.00;94529.84;5049818;28;24513;-71
2021/12/05 07:09:47;;;;;;;4.45;1.40;;;;;;;0.42;100.00;94539.94;5050106;28;24434;-71
2021/12/05 07:12:45;;;;;;;2.33;1.10;;;;;;;0.39;100.00;94541.78;5050472;28;24487;-71
2021/12/05 07:15:15;;;;;;;3.30;1.20;;;;;;;0.32;100.00;94543.78;5049890;28;24422;-73
2021/12/05 07:20:39;;;;;;;2.75;1.00;;;;;;;0.37;100.00;94548.66;5050489;28;24788;-71
2021/12/05 07:23:17;;;;;;;3.72;1.40;;;;;;;0.36;100.00;94552.94;5050360;28;24518;-71
2021/12/05 07:25:45;;;;;;;3.13;1.10;;;;;;;0.33;100.00;94547.13;5053745;28;25052;-73
2021/12/05 07:42:02;;;;;;;3.85;1.50;;;;;;;0.46;100.00;94530.44;5054085;28;24593;-71
2021/12/05 07:44:28;;;;;;;5.93;3.10;;;;;;;0.46;100.00;94535.53;5054087;28;24504;-71
2021/12/05 07:46:56;;;;;;;10.55;6.63;;;;;;;0.40;100.00;94536.63;5053735;28;24426;-72
2021/12/05 07:49:23;;;;;;;13.63;8.15;;;;;;;0.31;100.00;94531.94;5053742;28;24555;-73
2021/12/05 07:51:51;;;;;;;10.57;6.63;;;;;;;0.40;100.00;94531.53;5053933;28;24431;-72
2021/12/05 07:54:30;;;;;;;9.25;6.10;;;;;;;0.42;100.00;94542.50;5053659;28;24971;-73
2021/12/05 07:57:05;;;;;;;13.10;7.93;;;;;;;0.44;100.00;94538.16;5053617;28;24427;-72
2021/12/05 07:59:45;;;;;;;9.40;4.85;;;;;;;0.48;100.00;94539.69;5053619;28;24424;-71
2021/12/05 08:15:47;;;;;;;3.15;1.50;;;;;;;0.64;100.00;94534.75;5053264;28;24422;-74
2021/12/05 08:18:15;;;;;;;2.90;1.10;;;;;;;0.80;100.00;94527.25;5053402;28;24423;-73
2021/12/05 08:20:44;;;;;;;3.05;1.48;;;;;;;0.90;100.00;94525.94;5053220;28;24422;-74
2021/12/05 08:23:12;;;;;;;2.72;1.30;;;;;;;0.91;100.00;94531.88;5053423;28;24411;-72
2021/12/05 08:25:42;;;;;;;1.92;1.10;;;;;;;1.05;100.00;94532.06;5053072;28;24489;-72
2021/12/05 08:28:22;;;;;;;3.08;1.27;;;;;;;1.24;100.00;94532.06;5053293;28;24419;-71
2021/12/05 08:31:06;;;;;;;2.70;1.50;;;;;;;1.29;100.00;94534.38;5053201;28;24446;-72
2021/12/05 08:33:58;;;;;;;2.38;1.50;;;;;;;1.32;100.00;94535.06;5053232;28;24525;-72
2021/12/05 08:45:32;;;;;;;5.93;3.65;;;;;;;1.72;100.00;94537.47;5108304;27;21262;-71
2021/12/05 09:24:00;;;;;;;3.13;1.33;;;;;;;1.81;100.00;94555.72;5084192;28;24550;-74
2021/12/05 09:26:48;;;;;;;3.30;1.70;;;;;;;1.68;100.00;94559.75;5107361;28;24425;-72
2021/12/05 09:40:30;;;;;;;2.90;1.50;;;;;;;1.71;100.00;94562.19;5107328;28;24551;-70
2021/12/05 09:51:56;;;;;;;4.40;1.70;;;;;;;1.87;100.00;94563.09;5127386;28;24425;-71
2021/12/05 10:02:44;;;;;;;2.10;1.20;;;;;;;1.75;100.00;94557.75;5113748;28;24980;-71
2021/12/05 10:10:54;;;;;;;3.80;1.80;;;;;;;1.75;100.00;94555.19;5113588;28;24416;-72
2021/12/05 10:13:28;;;;;;;2.03;1.10;;;;;;;1.86;100.00;94553.78;5113771;28;24767;-72
2021/12/05 10:16:09;;;;;;;2.65;1.55;;;;;;;1.89;100.00;94555.34;5113427;28;24428;-71
2021/12/05 10:19:25;;;;;;;2.03;1.20;;;;;;;1.90;100.00;94562.94;5113459;28;24478;-72
2021/12/05 10:36:04;;;;;;;2.88;1.40;;;;;;;2.52;100.00;94536.88;5112884;28;24447;-72
2021/12/05 10:38:39;;;;;;;2.28;1.33;;;;;;;2.48;100.00;94537.94;5113243;28;24421;-72
2021/12/05 10:41:22;;;;;;;3.28;1.40;;;;;;;2.57;100.00;94542.63;5113038;28;24417;-71
2021/12/05 10:43:53;;;;;;;2.60;1.40;;;;;;;2.55;100.00;94536.75;5112631;28;24954;-71
2021/12/05 10:46:22;;;;;;;4.77;2.00;;;;;;;2.54;100.00;94535.91;5112476;28;24429;-71
2021/12/05 10:48:52;;;;;;;3.60;1.70;;;;;;;2.52;100.00;94529.22;5112961;28;24420;-71
2021/12/05 10:51:20;;;;;;;3.10;1.50;;;;;;;2.50;100.00;94529.31;5112830;28;24498;-72
2021/12/05 10:53:49;;;;;;;2.38;1.60;;;;;;;2.53;100.00;94523.22;5112689;28;24946;-72
2021/12/05 10:56:21;;;;;;;3.97;2.70;;;;;;;2.60;100.00;94516.91;5112420;27;24413;-72
2021/12/05 10:58:54;;;;;;;3.33;2.33;;;;;;;2.72;100.00;94525.66;5112510;28;24409;-72
2021/12/05 11:01:25;;;;;;;3.97;1.90;;;;;;;2.74;100.00;94521.28;5112669;28;24420;-72
2021/12/05 11:03:54;;;;;;;2.88;1.83;;;;;;;2.89;100.00;94523.88;5112573;28;24444;-72
2021/12/05 11:06:40;;;;;;;2.00;1.30;;;;;;;3.10;100.00;94528.75;5111320;28;24466;-72
2021/12/05 11:09:11;;;;;;;3.15;1.30;;;;;;;3.01;100.00;94526.69;5112519;28;24417;-72
2021/12/05 11:11:43;;;;;;;2.58;1.55;;;;;;;2.94;100.00;94528.75;5112533;28;24429;-72
2021/12/05 11:14:13;;;;;;;3.65;1.67;;;;;;;2.92;100.00;94521.13;5112486;28;24417;-71
2021/12/05 11:16:47;;;;;;;7.18;4.20;;;;;;;2.97;100.00;94520.09;5111834;28;24779;-72
2021/12/05 11:19:17;;;;;;;3.20;1.70;;;;;;;2.96;100.00;94513.31;5112086;28;24428;-71
2021/12/05 11:21:48;;;;;;;3.42;1.92;;;;;;;2.89;100.00;94511.09;5111889;28;24433;-71
2021/12/05 11:24:21;;;;;;;2.95;1.30;;;;;;;3.04;100.00;94508.59;5112252;28;24447;-71
2021/12/05 11:27:13;;;;;;;2.50;1.10;;;;;;;2.98;100.00;94508.94;5111979;28;24791;-71
2021/12/05 11:29:47;;;;;;;2.83;1.13;;;;;;;2.90;100.00;94512.72;5111943;28;24954;-73
2021/12/05 11:32:16;;;;;;;2.88;1.30;;;;;;;2.86;100.00;94505.31;5112457;28;24765;-73
2021/12/05 11:34:43;;;;;;;1.20;0.80;;;;;;;2.83;100.00;94505.47;5111976;28;24413;-75
2021/12/05 11:37:10;;;;;;;1.40;0.93;;;;;;;2.82;100.00;94499.53;5111869;28;24459;-73
2021/12/05 11:39:36;;;;;;;2.50;1.02;;;;;;;2.90;100.00;94501.69;5111890;28;24429;-71
2021/12/05 11:42:18;;;;;;;1.13;0.80;;;;;;;2.92;100.00;94502.41;5111511;28;24969;-70
2021/12/05 11:44:48;;;;;;;3.40;0.80;;;;;;;2.99;100.00;94501.19;5111355;28;24449;-73
2021/12/05 11:47:17;;;;;;;4.93;3.03;;;;;;;2.94;100.00;94502.34;5111834;28;24427;-70
2021/12/05 11:49:44;;;;;;;2.42;0.90;;;;;;;2.92;100.00;94502.41;5111654;28;24417;-71
2021/12/05 11:52:10;;;;;;;1.50;0.70;;;;;;;2.92;100.00;94502.41;5111491;28;24512;-72
2021/12/05 11:54:40;;;;;;;1.80;0.63;;;;;;;2.85;100.00;94507.03;5111568;28;24412;-70
2021/12/05 11:57:11;;;;;;;1.30;0.88;;;;;;;2.76;100.00;94506.69;5111096;28;24417;-71
2021/12/05 11:59:41;;;;;;;1.30;0.68;;;;;;;2.81;100.00;94502.97;5111665;28;24425;-70
2021/12/05 12:02:12;;;;;;;3.40;1.10;;;;;;;2.74;100.00;94499.09;5111440;28;24775;-70
2021/12/05 12:04:51;;;;;;;2.10;0.88;;;;;;;2.84;100.00;94505.38;5111404;28;24536;-70
2021/12/05 12:07:28;;;;;;;1.83;0.80;;;;;;;2.78;100.00;94507.41;5111096;28;24795;-70
2021/12/05 12:09:59;;;;;;;2.00;0.73;;;;;;;2.80;100.00;94500.50;5111431;28;24440;-71
2021/12/05 12:12:26;;;;;;;2.90;1.00;;;;;;;2.83;100.00;94503.72;5111426;28;24471;-71
2021/12/05 12:14:54;;;;;;;1.10;0.70;;;;;;;2.82;100.00;94503.81;5111128;28;24413;-71
2021/12/05 12:17:21;;;;;;;2.70;1.20;;;;;;;2.81;100.00;94492.75;5110778;28;24416;-71
2021/12/05 12:19:50;;;;;;;1.08;0.60;;;;;;;2.87;100.00;94504.41;5110708;28;24946;-71
2021/12/05 12:22:21;;;;;;;1.60;0.90;;;;;;;2.89;100.00;94497.44;5110816;28;24794;-71
2021/12/05 12:24:50;;;;;;;1.20;0.70;;;;;;;2.85;100.00;94490.84;5111021;28;24464;-71
2021/12/05 12:27:17;;;;;;;1.55;1.00;;;;;;;2.79;100.00;94493.75;5111007;28;24413;-72
2021/12/05 12:29:45;;;;;;;2.60;1.42;;;;;;;2.82;100.00;94496.97;5111084;28;24413;-72
2021/12/05 12:32:18;;;;;;;2.20;1.40;;;;;;;2.84;100.00;94495.16;5110714;28;24436;-72
2021/12/05 12:34:45;;;;;;;4.90;2.00;;;;;;;2.90;100.00;94497.38;5110677;28;24420;-72
2021/12/05 12:37:14;;;;;;;1.02;0.80;;;;;;;2.90;100.00;94491.47;5110861;28;24426;-72
2021/12/05 12:39:44;;;;;;;0.93;0.52;;;;;;;2.89;100.00;94490.63;5111038;28;24413;-72
2021/12/05 12:42:16;;;;;;;1.00;0.50;;;;;;;2.92;100.00;94499.84;5110750;28;24795;-72
2021/12/05 12:45:11;;;;;;;4.10;0.83;;;;;;;2.99;100.00;94500.34;5110663;28;24448;-72
2021/12/05 12:47:41;;;;;;;1.20;0.82;;;;;;;2.95;100.00;94504.00;5111104;28;24512;-72
2021/12/05 12:50:39;;;;;;;1.38;0.60;;;;;;;3.01;100.00;94509.59;5111018;28;24424;-72
2021/12/05 12:53:12;;;;;;;0.75;0.50;;;;;;;3.05;100.00;94505.97;5027922;28;24454;-72
2021/12/05 12:55:43;;;;;;;2.40;0.70;;;;;;;3.08;100.00;94500.69;5094833;28;24453;-71
2021/12/05 12:58:12;;;;;;;2.83;1.02;;;;;;;3.09;100.00;94504.09;5110932;28;24421;-74
2021/12/05 13:00:42;;;;;;;1.08;0.50;;;;;;;3.10;100.00;94498.03;5110681;28;25049;-72
2021/12/05 13:03:26;;;;;;;0.98;0.45;;;;;;;3.12;100.00;94496.25;5110533;28;24787;-70
2021/12/05 13:11:53;;;;;;;2.80;0.80;;;;;;;3.06;100.00;94501.69;5110638;28;24424;-73
2021/12/05 13:14:21;;;;;;;1.70;0.68;;;;;;;3.13;100.00;94503.00;5110496;28;24414;-70
2021/12/05 13:16:48;;;;;;;1.92;0.63;;;;;;;3.15;100.00;94498.63;5110403;28;24420;-71
2021/12/05 13:19:22;;;;;;;2.05;0.70;;;;;;;3.06;100.00;94501.69;5110623;28;24455;-71
2021/12/05 13:21:52;;;;;;;1.73;0.80;;;;;;;3.06;100.00;94496.56;5110917;28;24532;-73
2021/12/05 13:24:27;;;;;;;1.57;0.73;;;;;;;3.08;100.00;94500.69;5110681;28;24477;-73
2021/12/05 13:27:01;;;;;;;0.98;0.50;;;;;;;3.11;100.00;94504.81;5110159;28;24418;-71
2021/12/05 13:29:29;;;;;;;1.60;0.85;;;;;;;3.01;100.00;94501.13;5110739;28;24421;-71
2021/12/05 13:32:04;;;;;;;1.35;0.90;;;;;;;2.92;100.00;94500.69;5114412;28;24517;-71
2021/12/05 13:34:47;;;;;;;1.30;0.77;;;;;;;2.96;100.00;94510.75;5114235;28;24402;-71
2021/12/05 13:37:24;;;;;;;1.55;0.70;;;;;;;2.80;100.00;94500.50;5113904;28;24935;-70
2021/12/05 13:39:54;;;;;;;2.00;0.88;;;;;;;2.74;100.00;94503.38;5114300;28;24417;-73
2021/12/05 13:42:24;;;;;;;2.47;0.88;;;;;;;2.74;100.00;94501.66;5114178;28;24439;-71
2021/12/05 13:45:10;;;;;;;2.20;1.27;;;;;;;2.77;100.00;94505.78;5113648;28;24442;-71
2021/12/05 13:47:40;;;;;;;2.88;1.50;;;;;;;2.69;100.00;94511.28;5113795;28;24410;-70
2021/12/05 13:50:37;;;;;;;3.60;1.80;;;;;;;2.72;100.00;94516.25;5114205;28;24429;-72
2021/12/05 13:53:23;;;;;;;3.55;2.28;;;;;;;2.67;100.00;94513.94;5113946;28;24428;-70
2021/12/05 13:56:01;;;;;;;3.75;2.08;;;;;;;2.64;100.00;94516.66;5113374;28;24509;-71
2021/12/05 13:58:38;;;;;;;2.47;1.60;;;;;;;2.62;100.00;94513.34;5114041;28;24429;-71
2021/12/05 14:01:07;;;;;;;3.00;1.40;;;;;;;2.66;100.00;94517.38;5113979;28;24486;-71
2021/12/05 14:03:49;;;;;;;2.20;1.00;;;;;;;2.64;100.00;94526.06;5113761;28;24449;-71
2021/12/05 14:06:33;;;;;;;1.83;1.00;;;;;;;2.63;100.00;94530.34;5113362;28;24421;-70
2021/12/05 14:09:05;;;;;;;1.37;0.90;;;;;;;2.65;100.00;94533.63;5113850;27;24418;-70
2021/12/05 14:11:33;;;;;;;1.60;1.00;;;;;;;2.65;100.00;94543.84;5113621;28;24516;-71
2021/12/05 14:14:04;;;;;;;3.65;0.90;;;;;;;2.67;100.00;94536.13;5113473;28;24405;-72
2021/12/05 14:16:32;;;;;;;1.67;0.70;;;;;;;2.66;100.00;94539.56;5113054;28;24474;-72
2021/12/05 14:18:59;;;;;;;1.10;0.63;;;;;;;2.65;100.00;94548.97;5113810;28;24409;-72
2021/12/05 14:21:26;;;;;;;2.03;1.00;;;;;;;2.63;100.00;94550.81;5113446;28;24428;-71
2021/12/05 14:23:57;;;;;;;1.80;0.70;;;;;;;2.64;100.00;94554.19;5113300;28;24969;-73
2021/12/05 14:26:27;;;;;;;1.30;0.67;;;;;;;2.67;100.00;94564.25;5113173;28;24473;-70
2021/12/05 14:28:59;;;;;;;2.08;0.88;;;;;;;2.70;100.00;94565.81;5113304;28;24417;-70
2021/12/05 14:31:27;;;;;;;2.10;1.10;;;;;;;2.60;100.00;94561.19;5112835;28;25008;-71
2021/12/05 14:33:55;;;;;;;1.23;0.90;;;;;;;2.66;100.00;94565.13;5113299;28;24805;-70
2021/12/05 14:36:25;;;;;;;2.53;1.30;;;;;;;2.62;100.00;94567.03;5113102;28;24416;-73
2021/12/05 14:39:16;;;;;;;3.08;1.48;;;;;;;2.60;100.00;94561.19;5113166;28;24432;-71
2021/12/05 14:41:44;;;;;;;3.33;1.77;;;;;;;2.52;100.00;94570.97;5112737;28;24428;-70
2021/12/05 14:44:12;;;;;;;2.15;1.50;;;;;;;2.61;100.00;94575.59;5112658;28;24950;-70
2021/12/05 14:46:47;;;;;;;3.07;1.50;;;;;;;2.65;100.00;94571.97;5112900;28;24490;-71
2021/12/05 14:49:13;;;;;;;2.95;1.25;;;;;;;2.65;100.00;94564.31;5113010;28;24417;-73
2021/12/05 14:51:43;;;;;;;11.77;1.95;;;;;;;2.61;100.00;94579.88;5112712;28;24487;-72
2021/12/05 14:54:10;;;;;;;2.90;1.73;;;;;;;2.56;100.00;94575.03;5112485;28;24417;-73
2021/12/05 14:56:39;;;;;;;4.55;1.70;;;;;;;2.57;100.00;94581.78;5112767;28;24474;-70
2021/12/05 14:59:08;;;;;;;3.20;1.42;;;;;;;2.56;100.00;94574.16;5112669;28;25021;-71
2021/12/05 15:01:37;;;;;;;2.70;1.42;;;;;;;2.49;100.00;94583.06;5112592;28;24418;-71
2021/12/05 15:04:05;;;;;;;4.10;1.30;;;;;;;2.53;100.00;94582.84;5112575;28;24414;-70
2021/12/05 15:06:35;;;;;;;3.22;1.63;;;;;;;2.58;100.00;94591.09;5112604;28;24813;-72
2021/12/05 15:09:05;;;;;;;4.70;3.08;;;;;;;2.51;100.00;94594.03;5112349;27;24421;-72
2021/12/05 15:11:32;;;;;;;3.10;2.22;;;;;;;2.40;100.00;94597.94;5112457;28;24466;-72
2021/12/05 15:14:08;;;;;;;2.85;1.40;;;;;;;2.42;100.00;94598.69;5112442;28;24421;-71
2021/12/05 15:16:35;;;;;;;11.13;2.70;;;;;;;2.40;100.00;94597.94;5111855;28;24425;-72
2021/12/05 15:19:01;;;;;;;6.15;3.13;;;;;;;2.37;100.00;94602.38;5112194;28;24413;-71
2021/12/05 15:21:30;;;;;;;4.43;2.33;;;;;;;2.42;100.00;94600.44;5111957;28;24984;-71
2021/12/05 15:23:57;;;;;;;3.53;1.60;;;;;;;2.41;100.00;94611.53;5112316;28;24503;-70
2021/12/05 15:26:32;;;;;;;2.15;1.33;;;;;;;2.39;100.00;94610.81;5111923;28;24444;-71
2021/12/05 15:29:03;;;;;;;3.58;1.98;;;;;;;2.42;100.00;94616.59;5111923;28;24517;-73
2021/12/05 15:31:36;;;;;;;2.13;1.40;;;;;;;2.44;100.00;94613.94;5111231;28;24418;-74
2021/12/05 15:34:03;;;;;;;2.30;1.20;;;;;;;2.42;100.00;94616.59;5111525;28;24421;-72
2021/12/05 15:36:34;;;;;;;2.42;1.52;;;;;;;2.52;100.00;94616.97;5111353;28;24513;-69
2021/12/05 15:39:11;;;;;;;2.50;1.10;;;;;;;2.49;100.00;94621.41;5111635;28;24509;-70
2021/12/05 15:41:38;;;;;;;2.47;1.30;;;;;;;2.43;100.00;94628.47;5111572;28;24433;-72
2021/12/05 15:44:04;;;;;;;2.53;1.17;;;;;;;2.33;100.00;94627.25;5111381;28;24484;-72
2021/12/05 15:46:31;;;;;;;2.00;1.20;;;;;;;2.35;100.00;94635.69;5111292;28;24437;-70